Centerbrook, Connecticut
Current Conditions -  °F | °C
As of 4:55 PM on Saturday 25 Oct 2014 (Local Time) from KSNC Reporting Station
Clear Clear  
Wind Chill: 61°   Ceiling: Unl
Heat Index: 61°   Visibility: 10mi
Dew Point: 48°   Wind: 5mph
Humidity: 63%   Direction: 220°SW
Pressure: 29.64"   Gusts: NA
Location:  41.35°N, 72.42°W
Report Text: KSNC 252055Z AUTO 22004KT 10SM CLR 16/09 A2964 RMK AO2
Loading
Personal Weather Stations






























Interactive Weather Map New forecast layout! Learn more

10-Day Weather Forecast

Advertisements
Track Severe Weather on mobile